createdAt,value
2022-10-14T00:00:19.397Z,9.719187
2022-10-14T00:01:19.381Z,9.719158
2022-10-14T00:02:19.454Z,9.719204
2022-10-14T00:03:19.363Z,9.719304
2022-10-14T00:04:19.360Z,9.719330
2022-10-14T00:05:19.351Z,9.719447
2022-10-14T00:06:19.332Z,9.719591
2022-10-14T00:07:19.796Z,9.719352
2022-10-14T00:08:19.303Z,9.719483
2022-10-14T00:09:19.287Z,9.719489
2022-10-14T00:10:19.278Z,9.719389
2022-10-14T00:11:19.269Z,9.719275
2022-10-14T00:12:19.282Z,9.719328
2022-10-14T00:13:19.265Z,9.719296
2022-10-14T00:14:19.230Z,9.719278
2022-10-14T00:15:19.256Z,9.719193
2022-10-14T00:16:19.228Z,9.719175
2022-10-14T00:17:19.655Z,9.719191
2022-10-14T00:18:19.208Z,9.719159
2022-10-14T00:19:19.200Z,9.719165
2022-10-14T00:20:19.181Z,9.719212
2022-10-14T00:21:19.184Z,9.719174
2022-10-14T00:22:19.189Z,9.719229
2022-10-14T00:23:19.166Z,9.719202
2022-10-14T00:24:19.143Z,9.719168
2022-10-14T00:25:19.150Z,9.719122
2022-10-14T00:26:19.134Z,9.719154
2022-10-14T00:27:19.376Z,9.719158
2022-10-14T00:28:19.138Z,9.719121
2022-10-14T00:29:19.121Z,9.719069
2022-10-14T00:30:19.107Z,9.719172
2022-10-14T00:31:19.069Z,9.719223
2022-10-14T00:32:19.067Z,9.719180
2022-10-14T00:33:19.067Z,9.719172
2022-10-14T00:34:19.058Z,9.719262
2022-10-14T00:35:19.034Z,9.719279
2022-10-14T00:36:19.024Z,9.719278
2022-10-14T00:37:19.328Z,9.719296
2022-10-14T00:38:18.995Z,9.719261
2022-10-14T00:39:19.006Z,9.719246
2022-10-14T00:40:18.982Z,9.719187
2022-10-14T00:41:18.956Z,9.719249
2022-10-14T00:42:18.949Z,9.719232
2022-10-14T00:43:18.942Z,9.719208
2022-10-14T00:44:18.960Z,9.719122
2022-10-14T00:45:18.940Z,9.719174
2022-10-14T00:46:18.933Z,9.719226
2022-10-14T00:47:19.197Z,9.719258
2022-10-14T00:48:18.971Z,9.719225
2022-10-14T00:49:18.904Z,9.719208
2022-10-14T00:50:18.879Z,9.719276
2022-10-14T00:51:18.880Z,9.719310
2022-10-14T00:52:18.870Z,9.719231
2022-10-14T00:53:18.841Z,9.719288
2022-10-14T00:54:18.834Z,9.719303
2022-10-14T00:55:18.827Z,9.719264
2022-10-14T00:56:18.815Z,9.719306
2022-10-14T00:57:19.184Z,9.719267
2022-10-14T00:58:18.797Z,9.719291
2022-10-14T00:59:18.790Z,9.719269
2022-10-14T01:00:18.788Z,9.719330
2022-10-14T01:01:18.791Z,9.719321
2022-10-14T01:02:18.761Z,9.719237
2022-10-14T01:03:18.768Z,9.719233
2022-10-14T01:04:18.742Z,9.719257
2022-10-14T01:05:18.765Z,9.719315
2022-10-14T01:06:18.729Z,9.719317
2022-10-14T01:07:18.901Z,9.719317
2022-10-14T01:08:18.701Z,9.719329
2022-10-14T01:09:18.693Z,9.719251
2022-10-14T01:10:18.704Z,9.719283
2022-10-14T01:11:18.675Z,9.719343
2022-10-14T01:12:31.858Z,9.719388
2022-10-14T01:13:20.664Z,9.719410
2022-10-14T01:14:18.656Z,9.719370
2022-10-14T01:15:18.646Z,9.719313
2022-10-14T01:16:18.640Z,9.719275
2022-10-14T01:17:18.634Z,9.719168
2022-10-14T01:18:18.626Z,9.719086
2022-10-14T01:19:18.591Z,9.719252
2022-10-14T01:20:18.583Z,9.719146
2022-10-14T01:21:18.569Z,9.719179
2022-10-14T01:22:22.132Z,9.718884
2022-10-14T01:23:19.619Z,9.719316
2022-10-14T01:24:18.546Z,9.719408
2022-10-14T01:25:18.534Z,9.719408
2022-10-14T01:26:18.520Z,9.719408
2022-10-14T01:27:18.515Z,9.719408
2022-10-14T01:28:18.561Z,9.719408
2022-10-14T01:29:18.522Z,9.719408
2022-10-14T01:30:18.492Z,9.719408
2022-10-14T01:31:18.503Z,9.719408
2022-10-14T01:32:18.637Z,9.719408
2022-10-14T01:33:19.450Z,9.719408
2022-10-14T01:34:18.437Z,9.719408
2022-10-14T01:35:18.433Z,9.719408
2022-10-14T01:36:18.444Z,9.719408
2022-10-14T01:37:18.418Z,9.719408
2022-10-14T01:38:18.402Z,9.719408
2022-10-14T01:39:18.400Z,9.719408
2022-10-14T01:40:18.380Z,9.719408
2022-10-14T01:41:18.369Z,9.719408
2022-10-14T01:42:18.543Z,9.719360
2022-10-14T01:43:18.362Z,9.719288
2022-10-14T01:44:18.353Z,9.719212
2022-10-14T01:45:18.358Z,9.719172
2022-10-14T01:46:18.337Z,9.719215
2022-10-14T01:47:18.320Z,9.719319
2022-10-14T01:48:18.313Z,9.719300
2022-10-14T01:49:18.288Z,9.719192
2022-10-14T01:50:19.306Z,9.719170
2022-10-14T01:51:18.281Z,9.719048
2022-10-14T01:52:18.378Z,9.719155
2022-10-14T01:53:18.253Z,9.719225
2022-10-14T01:54:18.246Z,9.719201
2022-10-14T01:55:18.279Z,9.719169
2022-10-14T01:56:18.233Z,9.719138
2022-10-14T01:57:18.226Z,9.718981
2022-10-14T01:58:18.222Z,9.719094
2022-10-14T01:59:18.196Z,9.719080
2022-10-14T02:00:18.211Z,9.719129
2022-10-14T02:01:18.216Z,9.719127
2022-10-14T02:02:18.249Z,9.719101
2022-10-14T02:03:18.171Z,9.719156
2022-10-14T02:04:18.145Z,9.719143
2022-10-14T02:05:18.134Z,9.719139
2022-10-14T02:06:18.138Z,9.719174
2022-10-14T02:07:18.146Z,9.719158
2022-10-14T02:08:18.103Z,9.719069
2022-10-14T02:09:18.100Z,9.719089
2022-10-14T02:10:18.088Z,9.719155
2022-10-14T02:11:18.073Z,9.719174
2022-10-14T02:12:18.278Z,9.719099
2022-10-14T02:13:18.060Z,9.719199
2022-10-14T02:14:18.047Z,9.719031
2022-10-14T02:15:18.031Z,9.719318
2022-10-14T02:16:18.033Z,9.719270
2022-10-14T02:17:18.029Z,9.719139
2022-10-14T02:18:18.020Z,9.719253
2022-10-14T02:19:18.014Z,9.719223
2022-10-14T02:20:17.980Z,9.719234
2022-10-14T02:21:18.004Z,9.719279
2022-10-14T02:22:17.999Z,9.719243
2022-10-14T02:23:17.951Z,9.719316
2022-10-14T02:24:17.949Z,9.719265
2022-10-14T02:25:17.940Z,9.719239
2022-10-14T02:26:17.956Z,9.719321
2022-10-14T02:27:17.929Z,9.719324
2022-10-14T02:28:17.934Z,9.719143
2022-10-14T02:29:17.917Z,9.719069
2022-10-14T02:30:17.903Z,9.719242
2022-10-14T02:31:17.878Z,9.719146
2022-10-14T02:32:17.909Z,9.718980
2022-10-14T02:33:17.864Z,9.719007
2022-10-14T02:34:17.863Z,9.719037
2022-10-14T02:35:17.838Z,9.719095
2022-10-14T02:36:17.836Z,9.719107
2022-10-14T02:37:17.832Z,9.719137
2022-10-14T02:38:49.705Z,9.719229
2022-10-14T02:39:17.786Z,9.719173
2022-10-14T02:40:17.815Z,9.719122
2022-10-14T02:41:17.808Z,9.719138
2022-10-14T02:42:17.797Z,9.719111
2022-10-14T02:43:17.773Z,9.719105
2022-10-14T02:44:17.754Z,9.719206
2022-10-14T02:45:17.752Z,9.719214
2022-10-14T02:46:17.728Z,9.719110
2022-10-14T02:47:17.719Z,9.719116
2022-10-14T02:48:17.708Z,9.719174
2022-10-14T02:49:17.701Z,9.719131
2022-10-14T02:50:17.688Z,9.719137
2022-10-14T02:51:17.695Z,9.719139
2022-10-14T02:52:17.681Z,9.719134
2022-10-14T02:53:17.665Z,9.719139
2022-10-14T02:54:17.665Z,9.719138
2022-10-14T02:55:17.663Z,9.719132
2022-10-14T02:56:17.649Z,9.719187
2022-10-14T02:57:17.612Z,9.719181
2022-10-14T02:58:17.615Z,9.719134
2022-10-14T02:59:17.596Z,9.719165
2022-10-14T03:00:17.584Z,9.719229
2022-10-14T03:01:17.656Z,9.719183
2022-10-14T03:02:17.567Z,9.719234
2022-10-14T03:03:17.558Z,9.719268
2022-10-14T03:04:17.587Z,9.719217
2022-10-14T03:05:17.568Z,9.719164
2022-10-14T03:06:17.571Z,9.719142
2022-10-14T03:07:17.539Z,9.719174
2022-10-14T03:08:17.514Z,9.719168
2022-10-14T03:09:17.503Z,9.719213
2022-10-14T03:10:17.499Z,9.719139
2022-10-14T03:11:17.492Z,9.719182
2022-10-14T03:12:17.468Z,9.719182
2022-10-14T03:13:17.461Z,9.719163
2022-10-14T03:14:17.450Z,9.719206
2022-10-14T03:15:17.441Z,9.719256
2022-10-14T03:16:17.449Z,9.719213
2022-10-14T03:17:17.447Z,9.719173
2022-10-14T03:18:17.419Z,9.719134
2022-10-14T03:19:17.404Z,9.719129
2022-10-14T03:20:17.388Z,9.719122
2022-10-14T03:21:17.383Z,9.719162
2022-10-14T03:22:17.385Z,9.719191
2022-10-14T03:23:17.364Z,9.719182
2022-10-14T03:24:17.372Z,9.719110
2022-10-14T03:25:17.349Z,9.719002
2022-10-14T03:26:17.328Z,9.719124
2022-10-14T03:27:17.329Z,9.719140
2022-10-14T03:28:17.348Z,9.719151
2022-10-14T03:29:17.302Z,9.719142
2022-10-14T03:30:17.292Z,9.719069
2022-10-14T03:31:17.277Z,9.719049
2022-10-14T03:32:17.285Z,9.719089
2022-10-14T03:33:20.555Z,9.719126
2022-10-14T03:34:17.244Z,9.719191
2022-10-14T03:35:17.246Z,9.719206
2022-10-14T03:36:17.239Z,9.719131
2022-10-14T03:37:17.234Z,9.719156
2022-10-14T03:38:17.210Z,9.719053
2022-10-14T03:39:17.196Z,9.719000
2022-10-14T03:40:17.203Z,9.719049
2022-10-14T03:41:17.182Z,9.719149
2022-10-14T03:42:17.169Z,9.719034
2022-10-14T03:43:17.181Z,9.719127
2022-10-14T03:44:17.163Z,9.719028
2022-10-14T03:45:17.149Z,9.719191
2022-10-14T03:46:17.140Z,9.719162
2022-10-14T03:47:17.126Z,9.719188
2022-10-14T03:48:17.137Z,9.719206
2022-10-14T03:49:17.102Z,9.719229
2022-10-14T03:50:17.098Z,9.719209
2022-10-14T03:51:17.083Z,9.719124
2022-10-14T03:52:17.069Z,9.719235
2022-10-14T03:53:17.076Z,9.719315
2022-10-14T03:54:17.074Z,9.719256
2022-10-14T03:55:17.067Z,9.719195
2022-10-14T03:56:17.053Z,9.719284
2022-10-14T03:57:17.018Z,9.719255
2022-10-14T03:58:17.013Z,9.719225
2022-10-14T03:59:16.997Z,9.719149
2022-10-14T04:00:17.020Z,9.719106
2022-10-14T04:01:16.996Z,9.719197
2022-10-14T04:02:16.982Z,9.719194
2022-10-14T04:03:16.965Z,9.719166
2022-10-14T04:04:16.963Z,9.719182
2022-10-14T04:05:16.946Z,9.719164
2022-10-14T04:06:16.949Z,9.719176
2022-10-14T04:07:16.943Z,9.719201
2022-10-14T04:08:16.916Z,9.719210
2022-10-14T04:09:16.907Z,9.719241
2022-10-14T04:10:16.902Z,9.719274
2022-10-14T04:11:16.899Z,9.719245
2022-10-14T04:12:16.877Z,9.719229
2022-10-14T04:13:16.897Z,9.719258
2022-10-14T04:14:16.859Z,9.719227
2022-10-14T04:15:16.857Z,9.719190
2022-10-14T04:16:16.868Z,9.719203
2022-10-14T04:17:16.833Z,9.719224
2022-10-14T04:18:16.839Z,9.719208
2022-10-14T04:19:16.831Z,9.719142
2022-10-14T04:20:16.800Z,9.718936
2022-10-14T04:21:16.795Z,9.719092
2022-10-14T04:22:16.790Z,9.719121
2022-10-14T04:23:16.753Z,9.719011
2022-10-14T04:24:16.776Z,9.719005
2022-10-14T04:25:16.747Z,9.719022
2022-10-14T04:26:16.730Z,9.719026
2022-10-14T04:27:16.732Z,9.719011
2022-10-14T04:28:16.781Z,9.718906
2022-10-14T04:29:16.732Z,9.719048
2022-10-14T04:30:16.707Z,9.719291
2022-10-14T04:31:16.682Z,9.719539
2022-10-14T04:32:16.693Z,9.719151
2022-10-14T04:33:16.667Z,9.718854
2022-10-14T04:34:16.692Z,9.718995
2022-10-14T04:35:16.655Z,9.719023
2022-10-14T04:36:16.651Z,9.718928
2022-10-14T04:37:16.645Z,9.719314
2022-10-14T04:38:16.633Z,9.719353
2022-10-14T04:39:16.643Z,9.718979
2022-10-14T04:40:16.625Z,9.719044
2022-10-14T04:41:16.600Z,9.718963
2022-10-14T04:42:16.587Z,9.719381
2022-10-14T04:43:16.587Z,9.719467
2022-10-14T04:44:16.568Z,9.719099
2022-10-14T04:45:16.584Z,9.718915
2022-10-14T04:46:16.563Z,9.719211
2022-10-14T04:47:16.550Z,9.719234
2022-10-14T04:48:16.534Z,9.719428
2022-10-14T04:49:16.541Z,9.719384
2022-10-14T04:50:16.539Z,9.719160
2022-10-14T04:51:16.514Z,9.718787
2022-10-14T04:52:16.505Z,9.718998
2022-10-14T04:53:21.064Z,9.719090
2022-10-14T04:54:18.480Z,9.719089
2022-10-14T04:55:16.476Z,9.719563
2022-10-14T04:56:16.482Z,9.719377
2022-10-14T04:57:16.460Z,9.719448
2022-10-14T04:58:16.447Z,9.719339
2022-10-14T04:59:16.447Z,9.719290
2022-10-14T05:00:16.453Z,9.719173
2022-10-14T05:01:16.497Z,9.719119
2022-10-14T05:02:16.461Z,9.719054
2022-10-14T05:03:16.399Z,9.719209
2022-10-14T05:04:16.386Z,9.719165
2022-10-14T05:05:16.373Z,9.719061
2022-10-14T05:06:16.389Z,9.719256
2022-10-14T05:07:16.356Z,9.719289
2022-10-14T05:08:16.352Z,9.719152
2022-10-14T05:09:16.340Z,9.719546
2022-10-14T05:10:16.329Z,9.719090
2022-10-14T05:11:16.336Z,9.719095
2022-10-14T05:12:16.311Z,9.719190
2022-10-14T05:13:16.304Z,9.719142
2022-10-14T05:14:16.319Z,9.719063
2022-10-14T05:15:16.329Z,9.719252
2022-10-14T05:16:16.281Z,9.719158
2022-10-14T05:17:16.267Z,9.719235
2022-10-14T05:18:16.262Z,9.719099
2022-10-14T05:19:16.257Z,9.718999
2022-10-14T05:20:16.265Z,9.719285
2022-10-14T05:21:16.232Z,9.719447
2022-10-14T05:22:16.204Z,9.719613
2022-10-14T05:23:16.203Z,9.719415
2022-10-14T05:24:16.202Z,9.719402
2022-10-14T05:25:16.204Z,9.719591
2022-10-14T05:26:16.179Z,9.719358
2022-10-14T05:27:16.173Z,9.719008
2022-10-14T05:28:16.228Z,9.719435
2022-10-14T05:29:16.149Z,9.719350
2022-10-14T05:30:16.151Z,9.719408
2022-10-14T05:31:16.131Z,9.719261
2022-10-14T05:32:16.123Z,9.719158
2022-10-14T05:33:16.133Z,9.719278
2022-10-14T05:34:16.123Z,9.719103
2022-10-14T05:35:22.051Z,9.719121
2022-10-14T05:36:17.088Z,9.719040
2022-10-14T05:37:16.075Z,9.719007
2022-10-14T05:38:16.094Z,9.719177
2022-10-14T05:39:16.066Z,9.718955
2022-10-14T05:40:16.049Z,9.719127
2022-10-14T05:41:16.049Z,9.719134
2022-10-14T05:42:16.028Z,9.719115
2022-10-14T05:43:16.031Z,9.719064
2022-10-14T05:44:16.705Z,9.718999
2022-10-14T05:45:16.010Z,9.719087
2022-10-14T05:46:15.991Z,9.719127
2022-10-14T05:47:15.982Z,9.719070
2022-10-14T05:48:15.976Z,9.719042
2022-10-14T05:49:15.998Z,9.719195
2022-10-14T05:50:15.947Z,9.719024
2022-10-14T05:51:15.942Z,9.718965
2022-10-14T05:52:15.928Z,9.718843
2022-10-14T05:53:15.981Z,9.718962
2022-10-14T05:54:15.937Z,9.719059
2022-10-14T05:55:15.895Z,9.719303
2022-10-14T05:56:16.895Z,9.719081
2022-10-14T05:57:15.883Z,9.719266
2022-10-14T05:58:15.874Z,9.719187
2022-10-14T05:59:15.863Z,9.719217
2022-10-14T06:00:15.877Z,9.719177
2022-10-14T06:01:15.839Z,9.719182
2022-10-14T06:02:16.847Z,9.719043
2022-10-14T06:03:15.900Z,9.719098
2022-10-14T06:04:15.813Z,9.719194
2022-10-14T06:05:15.809Z,9.719097
2022-10-14T06:06:15.792Z,9.719011
2022-10-14T06:07:15.806Z,9.718926
2022-10-14T06:08:15.774Z,9.718935
2022-10-14T06:09:15.765Z,9.718971
2022-10-14T06:10:15.766Z,9.718981
2022-10-14T06:11:15.742Z,9.718992
2022-10-14T06:12:16.775Z,9.719001
2022-10-14T06:13:15.721Z,9.719043
2022-10-14T06:14:16.719Z,9.719003
2022-10-14T06:15:15.717Z,9.718922
2022-10-14T06:16:15.698Z,9.718929
2022-10-14T06:17:17.519Z,9.719045
2022-10-14T06:18:16.677Z,9.719105
2022-10-14T06:19:15.668Z,9.719091
2022-10-14T06:20:15.668Z,9.719054
2022-10-14T06:21:15.644Z,9.719044
2022-10-14T06:22:15.637Z,9.718948
2022-10-14T06:23:15.631Z,9.718949
2022-10-14T06:24:15.642Z,9.718961
2022-10-14T06:25:15.614Z,9.719084
2022-10-14T06:26:15.591Z,9.719225
2022-10-14T06:27:15.617Z,9.719061
2022-10-14T06:28:15.651Z,9.719140
2022-10-14T06:29:15.576Z,9.719219
2022-10-14T06:30:15.578Z,9.719105
2022-10-14T06:31:15.574Z,9.719086
2022-10-14T06:32:15.538Z,9.719131
2022-10-14T06:33:15.674Z,9.719180
2022-10-14T06:34:15.523Z,9.719167
2022-10-14T06:35:15.516Z,9.719137
2022-10-14T06:36:15.520Z,9.719057
2022-10-14T06:37:15.500Z,9.719213
2022-10-14T06:38:15.502Z,9.719215
2022-10-14T06:39:15.470Z,9.719243
2022-10-14T06:40:15.455Z,9.719135
2022-10-14T06:41:15.469Z,9.719151
2022-10-14T06:42:15.441Z,9.719208
2022-10-14T06:43:15.433Z,9.719186
2022-10-14T06:44:15.440Z,9.719220
2022-10-14T06:45:15.430Z,9.719275
2022-10-14T06:46:16.406Z,9.719232
2022-10-14T06:47:15.399Z,9.719193
2022-10-14T06:48:15.387Z,9.719161
2022-10-14T06:49:15.372Z,9.719235
2022-10-14T06:50:15.442Z,9.719189
2022-10-14T06:51:15.365Z,9.719277
2022-10-14T06:52:15.349Z,9.719122
2022-10-14T06:53:15.336Z,9.719084
2022-10-14T06:54:15.331Z,9.719367
2022-10-14T06:55:15.334Z,9.719435
2022-10-14T06:56:15.311Z,9.719535
2022-10-14T06:57:15.302Z,9.719093
2022-10-14T06:58:15.306Z,9.719711
2022-10-14T06:59:15.279Z,9.719546
2022-10-14T07:00:15.272Z,9.719867
2022-10-14T07:01:15.309Z,9.720152
2022-10-14T07:02:15.252Z,9.720057
2022-10-14T07:03:15.263Z,9.719782
2022-10-14T07:04:15.231Z,9.719572
2022-10-14T07:05:15.218Z,9.719799
2022-10-14T07:06:15.206Z,9.719950
2022-10-14T07:07:15.201Z,9.719517
2022-10-14T07:08:15.700Z,9.719554
2022-10-14T07:09:15.209Z,9.718835
2022-10-14T07:10:15.170Z,9.719136
2022-10-14T07:11:15.171Z,9.719555
2022-10-14T07:12:15.161Z,9.719694
2022-10-14T07:13:15.145Z,9.719608
2022-10-14T07:14:15.153Z,9.720687
2022-10-14T07:15:15.130Z,9.719703
2022-10-14T07:16:15.120Z,9.719783
2022-10-14T07:17:15.104Z,9.719774
2022-10-14T07:18:15.092Z,9.719735
2022-10-14T07:19:15.077Z,9.719435
2022-10-14T07:20:15.100Z,9.719360
2022-10-14T07:21:15.063Z,9.719216
2022-10-14T07:22:15.055Z,9.719250
2022-10-14T07:23:15.041Z,9.719336
2022-10-14T07:24:15.033Z,9.719281
2022-10-14T07:25:15.034Z,9.719277
2022-10-14T07:26:15.031Z,9.719174
2022-10-14T07:27:15.009Z,9.719188
2022-10-14T07:28:15.050Z,9.719238
2022-10-14T07:29:14.999Z,9.719227
2022-10-14T07:30:17.464Z,9.719182
2022-10-14T07:31:14.968Z,9.719293
2022-10-14T07:32:14.974Z,9.719252
2022-10-14T07:33:14.952Z,9.719228
2022-10-14T07:34:14.966Z,9.719175
2022-10-14T07:35:14.946Z,9.719165
2022-10-14T07:36:17.211Z,9.719213
2022-10-14T07:37:15.908Z,9.719297
2022-10-14T07:38:14.910Z,9.719298
2022-10-14T07:39:14.902Z,9.719251
2022-10-14T07:40:14.896Z,9.719194
2022-10-14T07:41:14.878Z,9.719270
2022-10-14T07:42:14.898Z,9.719245
2022-10-14T07:43:14.850Z,9.719307
2022-10-14T07:44:14.848Z,9.719298
2022-10-14T07:45:14.830Z,9.719331
2022-10-14T07:46:14.812Z,9.719254
2022-10-14T07:47:14.806Z,9.719292
2022-10-14T07:48:17.091Z,9.719252
2022-10-14T07:49:15.784Z,9.719382
2022-10-14T07:50:15.783Z,9.719481
2022-10-14T07:51:14.794Z,9.719371
2022-10-14T07:52:14.757Z,9.718849
2022-10-14T07:53:14.748Z,9.719171
2022-10-14T07:54:14.735Z,9.719249
2022-10-14T07:55:14.729Z,9.719225
2022-10-14T07:56:14.722Z,9.719266
2022-10-14T07:57:14.715Z,9.719112
2022-10-14T07:58:14.707Z,9.719043
2022-10-14T07:59:14.685Z,9.719387
2022-10-14T08:00:14.673Z,9.719204
2022-10-14T08:01:14.726Z,9.719276
2022-10-14T08:02:14.652Z,9.719467
2022-10-14T08:03:14.677Z,9.719259
2022-10-14T08:04:14.643Z,9.719164
2022-10-14T08:06:16.672Z,9.719231
2022-10-14T08:07:14.655Z,9.719435
2022-10-14T08:08:14.615Z,9.719188
2022-10-14T08:09:14.642Z,9.719131
2022-10-14T08:10:14.603Z,9.718999
2022-10-14T08:11:14.574Z,9.719099
2022-10-14T08:12:14.605Z,9.719130
2022-10-14T08:13:14.540Z,9.719203
2022-10-14T08:14:14.542Z,9.719084
2022-10-14T08:15:14.547Z,9.719156
2022-10-14T08:16:14.529Z,9.719244
2022-10-14T08:17:14.504Z,9.719359
2022-10-14T08:18:14.504Z,9.719388
2022-10-14T08:19:15.030Z,9.719383
2022-10-14T08:20:14.506Z,9.719349
2022-10-14T08:21:14.510Z,9.719370
2022-10-14T08:22:14.485Z,9.719206
2022-10-14T08:23:17.502Z,9.719145
2022-10-14T08:24:16.443Z,9.719129
2022-10-14T08:25:14.429Z,9.718994
2022-10-14T08:26:14.448Z,9.719096
2022-10-14T08:27:14.398Z,9.719152
2022-10-14T08:28:14.482Z,9.719257
2022-10-14T08:29:14.379Z,9.718991
2022-10-14T08:30:14.375Z,9.719138
2022-10-14T08:31:14.364Z,9.719056
2022-10-14T08:32:14.379Z,9.719008
2022-10-14T08:33:14.349Z,9.719059
2022-10-14T08:34:14.351Z,9.719060
2022-10-14T08:35:14.325Z,9.719028
2022-10-14T08:36:14.319Z,9.719006
2022-10-14T08:37:14.327Z,9.719130
2022-10-14T08:38:23.963Z,9.719074
2022-10-14T08:39:14.295Z,9.719109
2022-10-14T08:40:14.285Z,9.719105
2022-10-14T08:41:14.279Z,9.719070
2022-10-14T08:42:14.272Z,9.719161
2022-10-14T08:43:14.276Z,9.719094
2022-10-14T08:44:14.271Z,9.719094
2022-10-14T08:45:14.248Z,9.719124
2022-10-14T08:46:14.262Z,9.719217
2022-10-14T08:47:14.228Z,9.719152
2022-10-14T08:48:14.213Z,9.719117
2022-10-14T08:49:14.196Z,9.719151
2022-10-14T08:50:14.222Z,9.719109
2022-10-14T08:51:14.206Z,9.719084
2022-10-14T08:52:14.170Z,9.719105
2022-10-14T08:53:14.156Z,9.719123
2022-10-14T08:54:14.149Z,9.719164
2022-10-14T08:55:14.154Z,9.719235
2022-10-14T08:56:14.123Z,9.719081
2022-10-14T08:57:14.168Z,9.719109
2022-10-14T08:58:14.210Z,9.719141
2022-10-14T08:59:14.085Z,9.719164
2022-10-14T09:00:14.163Z,9.719234
2022-10-14T09:01:14.091Z,9.719197
2022-10-14T09:02:14.061Z,9.719148
2022-10-14T09:03:14.110Z,9.719062
2022-10-14T09:04:14.119Z,9.719078
2022-10-14T09:05:14.040Z,9.719096
2022-10-14T09:06:14.048Z,9.719056
2022-10-14T09:07:14.099Z,9.718991
2022-10-14T09:08:14.009Z,9.719069
2022-10-14T09:09:13.983Z,9.719084
2022-10-14T09:10:13.975Z,9.719080
2022-10-14T09:11:14.003Z,9.719098
2022-10-14T09:12:13.956Z,9.719049
2022-10-14T09:13:13.946Z,9.719061
2022-10-14T09:14:13.935Z,9.719350
2022-10-14T09:15:13.916Z,9.719256
2022-10-14T09:16:13.932Z,9.719268
2022-10-14T09:17:13.987Z,9.719297
2022-10-14T09:18:13.901Z,9.719316
2022-10-14T09:19:13.894Z,9.719219
2022-10-14T09:20:13.884Z,9.719277
2022-10-14T09:21:22.715Z,9.719173
2022-10-14T09:22:15.877Z,9.719165
2022-10-14T09:23:13.846Z,9.719249
2022-10-14T09:24:13.834Z,9.719159
2022-10-14T09:25:13.843Z,9.719305
2022-10-14T09:26:13.836Z,9.719379
2022-10-14T09:27:13.826Z,9.719196
2022-10-14T09:28:13.807Z,9.719497
2022-10-14T09:29:13.781Z,9.719316
2022-10-14T09:30:13.775Z,9.719346
2022-10-14T09:31:13.776Z,9.719429
2022-10-14T09:32:13.773Z,9.719468
2022-10-14T09:33:13.754Z,9.719421
2022-10-14T09:34:13.734Z,9.719539
2022-10-14T09:35:13.728Z,9.719497
2022-10-14T09:36:13.745Z,9.719418
2022-10-14T09:37:13.716Z,9.719410
2022-10-14T09:38:13.700Z,9.719421
2022-10-14T09:39:13.697Z,9.719316
2022-10-14T09:40:13.680Z,9.719020
2022-10-14T09:41:13.687Z,9.719164
2022-10-14T09:42:13.664Z,9.719179
2022-10-14T09:43:13.667Z,9.719398
2022-10-14T09:44:13.660Z,9.719268
2022-10-14T09:45:13.634Z,9.719242
2022-10-14T09:46:13.624Z,9.719130
2022-10-14T09:47:13.641Z,9.719298
2022-10-14T09:48:13.619Z,9.719336
2022-10-14T09:49:13.601Z,9.719232
2022-10-14T09:50:13.598Z,9.719238
2022-10-14T09:51:13.603Z,9.719134
2022-10-14T09:52:13.571Z,9.719229
2022-10-14T09:53:13.565Z,9.719287
2022-10-14T09:54:13.565Z,9.719299
2022-10-14T09:55:13.559Z,9.719173
2022-10-14T09:56:13.544Z,9.719323
2022-10-14T09:57:13.538Z,9.719410
2022-10-14T09:58:13.508Z,9.719445
2022-10-14T09:59:13.507Z,9.719212
2022-10-14T10:00:13.498Z,9.719296
2022-10-14T10:01:13.528Z,9.719325
2022-10-14T10:02:13.474Z,9.719366
2022-10-14T10:03:17.054Z,9.719364
2022-10-14T10:04:14.464Z,9.719457
2022-10-14T10:05:13.462Z,9.719365
2022-10-14T10:06:13.439Z,9.719398
2022-10-14T10:07:13.416Z,9.719304
2022-10-14T10:08:13.404Z,9.719307
2022-10-14T10:09:13.403Z,9.719353
2022-10-14T10:10:13.414Z,9.719413
2022-10-14T10:11:13.422Z,9.719165
2022-10-14T10:12:13.375Z,9.719000
2022-10-14T10:13:13.378Z,9.719217
2022-10-14T10:14:13.365Z,9.719314
2022-10-14T10:15:13.341Z,9.719410
2022-10-14T10:16:13.359Z,9.719350
2022-10-14T10:17:13.335Z,9.719104
2022-10-14T10:18:13.307Z,9.719201
2022-10-14T10:19:13.296Z,9.719037
2022-10-14T10:20:13.297Z,9.719230
2022-10-14T10:21:13.281Z,9.719241
2022-10-14T10:22:13.312Z,9.719368
2022-10-14T10:23:13.258Z,9.719276
2022-10-14T10:24:13.265Z,9.719454
2022-10-14T10:25:13.257Z,9.719490
2022-10-14T10:26:13.228Z,9.719405
2022-10-14T10:27:13.236Z,9.719111
2022-10-14T10:28:13.204Z,9.719168
2022-10-14T10:29:13.225Z,9.719519
2022-10-14T10:30:13.188Z,9.719259
2022-10-14T10:31:13.188Z,9.719254
2022-10-14T10:32:13.239Z,9.719398
2022-10-14T10:33:13.160Z,9.719325
2022-10-14T10:34:13.151Z,9.719349
2022-10-14T10:35:13.144Z,9.719471
2022-10-14T10:36:13.178Z,9.719440
2022-10-14T10:37:13.147Z,9.719347
2022-10-14T10:38:13.136Z,9.719386
2022-10-14T10:39:13.141Z,9.719334
2022-10-14T10:40:13.130Z,9.719302
2022-10-14T10:41:13.097Z,9.719116
2022-10-14T10:42:13.076Z,9.719264
2022-10-14T10:43:13.093Z,9.719245
2022-10-14T10:44:13.104Z,9.719259
2022-10-14T10:45:13.069Z,9.719149
2022-10-14T10:46:13.066Z,9.719095
2022-10-14T10:47:13.061Z,9.719192
2022-10-14T10:48:13.069Z,9.719235
2022-10-14T10:49:13.032Z,9.719206
2022-10-14T10:50:13.038Z,9.719203
2022-10-14T10:51:13.020Z,9.719254
2022-10-14T10:52:16.084Z,9.719238
2022-10-14T10:53:14.023Z,9.719261
2022-10-14T10:54:12.993Z,9.719270
2022-10-14T10:55:12.986Z,9.719290
2022-10-14T10:56:12.970Z,9.719233
2022-10-14T10:57:12.972Z,9.719175
2022-10-14T10:58:12.981Z,9.719214
2022-10-14T10:59:12.985Z,9.719228
2022-10-14T11:00:12.999Z,9.719206
2022-10-14T11:01:12.998Z,9.719333
2022-10-14T11:02:12.945Z,9.719233
2022-10-14T11:03:12.937Z,9.719307
2022-10-14T11:04:12.931Z,9.719271
2022-10-14T11:05:12.898Z,9.719192
2022-10-14T11:06:12.873Z,9.719135
2022-10-14T11:07:12.870Z,9.719052
2022-10-14T11:08:12.856Z,9.719243
2022-10-14T11:09:12.856Z,9.719319
2022-10-14T11:10:12.840Z,9.719335
2022-10-14T11:11:12.852Z,9.719246
2022-10-14T11:12:12.804Z,9.719155
2022-10-14T11:13:12.800Z,9.719151
2022-10-14T11:14:12.794Z,9.719091
2022-10-14T11:15:12.810Z,9.719182
2022-10-14T11:16:12.789Z,9.719184
2022-10-14T11:17:12.780Z,9.719156
2022-10-14T11:18:12.753Z,9.719278
2022-10-14T11:19:14.605Z,9.718936
2022-10-14T11:20:12.726Z,9.718878
2022-10-14T11:21:12.742Z,9.719028
2022-10-14T11:22:12.723Z,9.719087
2022-10-14T11:23:12.693Z,9.718951
2022-10-14T11:24:12.734Z,9.718991
2022-10-14T11:25:12.676Z,9.718911
2022-10-14T11:26:12.688Z,9.718782
2022-10-14T11:27:12.680Z,9.718939
2022-10-14T11:28:12.649Z,9.718946
2022-10-14T11:29:12.604Z,9.718946
2022-10-14T11:30:12.603Z,9.719081
2022-10-14T11:31:12.593Z,9.718974
2022-10-14T11:32:12.592Z,9.718915
2022-10-14T11:33:12.576Z,9.718913
2022-10-14T11:34:12.565Z,9.719078
2022-10-14T11:35:12.572Z,9.719071
2022-10-14T11:36:12.565Z,9.719094
2022-10-14T11:37:12.529Z,9.719198
2022-10-14T11:38:12.516Z,9.719083
2022-10-14T11:39:12.509Z,9.719044
2022-10-14T11:40:13.525Z,9.719117
2022-10-14T11:41:12.497Z,9.719150
2022-10-14T11:42:12.494Z,9.719076
2022-10-14T11:43:12.474Z,9.719112
2022-10-14T11:44:12.469Z,9.719125
2022-10-14T11:45:14.210Z,9.719068